| time (UTC) | temp C | wind direction | speed KPH | gust KPH | rain 1hr cm | rain 24hr cm | rain mn cm | humidity % | barometer mb |
| 20260904210536 | 29 | 29 | 1.6 | 4.8 | 0.00 | 0.30 | 0.30 | 86 | 1012.9 |
| 20260904210014 | 30 | 46 | 0.0 | 4.8 | 0.00 | 0.30 | 0.30 | 87 | 1013.2 |
| 20260904205511 | 30 | 53 | 0.0 | 4.8 | 0.00 | 0.30 | 0.30 | 88 | 1013.2 |
| 20260904205008 | 30 | 52 | 3.2 | 6.4 | 0.00 | 0.30 | 0.30 | 86 | 1013.2 |
| 20260904204434 | 30 | 65 | 1.6 | 6.4 | 0.00 | 0.30 | 0.30 | 87 | 1013.2 |
| 20260904203931 | 29 | 75 | 1.6 | 6.4 | 0.00 | 0.30 | 0.30 | 88 | 1013.2 |
| 20260904203408 | 28 | 28 | 3.2 | 6.4 | 0.00 | 0.30 | 0.30 | 89 | 1013.2 |
| 20260904202904 | 28 | 37 | 1.6 | 4.8 | 0.00 | 0.30 | 0.30 | 91 | 1013.2 |
| 20260904202401 | 28 | 108 | 1.6 | 4.8 | 0.00 | 0.30 | 0.30 | 91 | 1013.5 |
| 20260904201858 | 28 | 108 | 0.0 | 4.8 | 0.00 | 0.30 | 0.30 | 91 | 1013.5 |
| 20260904201353 | 27 | 108 | 1.6 | 4.8 | 0.00 | 0.33 | 0.30 | 89 | 1013.5 |
| 20260904200818 | 27 | 227 | 1.6 | 3.2 | 0.03 | 0.33 | 0.30 | 90 | 1013.9 |
| 20260904200256 | 27 | 226 | 0.0 | 3.2 | 0.08 | 0.38 | 0.30 | 90 | 1013.5 |
| 20260904195737 | 27 | 226 | 0.0 | 4.8 | 0.13 | 0.48 | 0.30 | 89 | 1013.5 |
| 20260904195234 | 28 | 226 | 0.0 | 4.8 | 0.20 | 0.56 | 0.30 | 88 | 1013.5 |
| 20260904194700 | 28 | 226 | 0.0 | 4.8 | 0.30 | 0.64 | 0.30 | 88 | 1013.9 |
| 20260904194139 | 28 | 226 | 1.6 | 9.7 | 0.30 | 0.66 | 0.30 | 91 | 1013.9 |
| 20260904193636 | 28 | 225 | 0.0 | 9.7 | 0.30 | 0.71 | 0.30 | 91 | 1013.9 |
| 20260904193102 | 27 | 225 | 0.0 | 17.7 | 0.30 | 0.71 | 0.30 | 90 | 1013.9 |
| 20260904192559 | 27 | 260 | 4.8 | 17.7 | 0.30 | 0.71 | 0.30 | 90 | 1014.2 |
| 20260904192056 | 27 | 264 | 3.2 | 17.7 | 0.30 | 0.71 | 0.30 | 90 | 1014.2 |
| 20260904191521 | 27 | 256 | 8.0 | 17.7 | 0.30 | 0.71 | 0.30 | 88 | 1014.2 |
| 20260904191018 | 27 | 155 | 1.6 | 4.8 | 0.30 | 0.71 | 0.30 | 89 | 1014.6 |
| 20260904190438 | 28 | 119 | 1.6 | 3.2 | 0.25 | 0.66 | 0.25 | 87 | 1014.6 |
| 20260904185935 | 30 | 82 | 1.6 | 3.2 | 0.18 | 0.58 | 0.18 | 85 | 1014.6 |
| 20260904185432 | 31 | 82 | 1.6 | 6.4 | 0.13 | 0.53 | 0.13 | 84 | 1014.6 |
| 20260904184858 | 32 | 82 | 1.6 | 8.0 | 0.03 | 0.43 | 0.03 | 80 | 1014.6 |
| 20260904184323 | 32 | 81 | 1.6 | 8.0 | 0.00 | 0.41 | 0.00 | 77 | 1014.6 |
| 20260904183820 | 33 | 81 | 0.0 | 8.0 | 0.00 | 0.41 | 0.00 | 75 | 1014.6 |
| 20260904183316 | 33 | 62 | 3.2 | 8.0 | 0.00 | 0.41 | 0.00 | 74 | 1014.6 |
| 20260904182735 | 33 | 346 | 1.6 | 8.0 | 0.00 | 0.41 | 0.00 | 74 | 1014.6 |
| 20260904182231 | 33 | 22 | 3.2 | 8.0 | 0.00 | 0.41 | 0.00 | 72 | 1014.6 |
| 20260904181725 | 33 | 6 | 1.6 | 8.0 | 0.00 | 0.41 | 0.00 | 75 | 1014.6 |
| 20260904181134 | 33 | 49 | 3.2 | 9.7 | 0.00 | 0.41 | 0.00 | 74 | 1014.9 |
| 20260904180551 | 32 | 26 | 3.2 | 9.7 | 0.00 | 0.41 | 0.00 | 77 | 1014.9 |
| 20260904180048 | 32 | 81 | 3.2 | 9.7 | 0.00 | 0.41 | 0.00 | 78 | 1014.9 |
| 20260904175545 | 32 | 42 | 1.6 | 8.0 | 0.00 | 0.41 | 0.00 | 76 | 1014.9 |
| 20260904175041 | 32 | 23 | 3.2 | 8.0 | 0.00 | 0.41 | 0.00 | 76 | 1015.2 |
| 20260904174519 | 32 | 62 | 3.2 | 9.7 | 0.00 | 0.41 | 0.00 | 75 | 1015.2 |
| 20260904174001 | 33 | 67 | 3.2 | 9.7 | 0.00 | 0.41 | 0.00 | 74 | 1015.2 |
| 20260904173458 | 33 | 43 | 3.2 | 8.0 | 0.00 | 0.41 | 0.00 | 75 | 1015.2 |
| 20260904172955 | 33 | 25 | 3.2 | 6.4 | 0.00 | 0.41 | 0.00 | 75 | 1014.9 |
| 20260904172420 | 33 | 59 | 1.6 | 6.4 | 0.00 | 0.41 | 0.00 | 76 | 1014.9 |
| 20260904171858 | 33 | 29 | 3.2 | 6.4 | 0.00 | 0.41 | 0.00 | 76 | 1015.2 |
| 20260904171253 | 33 | 259 | 1.6 | 8.0 | 0.00 | 0.41 | 0.00 | 81 | 1015.2 |
| 20260904170735 | 32 | 249 | 1.6 | 8.0 | 0.00 | 0.41 | 0.00 | 79 | 1015.2 |
| 20260904170232 | 32 | 247 | 3.2 | 8.0 | 0.00 | 0.41 | 0.00 | 83 | 1015.2 |
| 20260904165729 | 31 | 252 | 3.2 | 6.4 | 0.00 | 0.41 | 0.00 | 82 | 1015.2 |
| 20260904165155 | 31 | 16 | 1.6 | 3.2 | 0.00 | 0.41 | 0.00 | 84 | 1015.2 |
| 20260904164652 | 30 | 16 | 1.6 | 3.2 | 0.00 | 0.41 | 0.00 | 84 | 1015.6 |
| 20260904164148 | 30 | 17 | 1.6 | 1.6 | 0.00 | 0.41 | 0.00 | 86 | 1015.6 |
| 20260904163646 | 30 | 17 | 0.0 | 1.6 | 0.00 | 0.41 | 0.00 | 86 | 1015.6 |
| 20260904163142 | 30 | 17 | 0.0 | 3.2 | 0.00 | 0.41 | 0.00 | 86 | 1015.6 |
| 20260904162639 | 30 | 17 | 0.0 | 4.8 | 0.00 | 0.41 | 0.00 | 86 | 1015.6 |
| 20260904162136 | 29 | 17 | 0.0 | 4.8 | 0.00 | 0.41 | 0.00 | 86 | 1015.6 |
| 20260904161633 | 28 | 17 | 0.0 | 4.8 | 0.00 | 0.41 | 0.00 | 86 | 1015.6 |
| 20260904161111 | 28 | 48 | 1.6 | 4.8 | 0.00 | 0.41 | 0.00 | 86 | 1015.6 |
| 20260904160608 | 28 | 275 | 1.6 | 1.6 | 0.00 | 0.41 | 0.00 | 89 | 1015.2 |
| 20260904160046 | 28 | 327 | 1.6 | 1.6 | 0.00 | 0.41 | 0.00 | 89 | 1015.2 |
| 20260904155511 | 28 | 327 | 0.0 | 3.2 | 0.00 | 0.41 | 0.00 | 88 | 1015.2 |
| 20260904155007 | 28 | 39 | 1.6 | 4.8 | 0.00 | 0.41 | 0.00 | 89 | 1015.2 |
| 20260904154501 | 28 | 35 | 1.6 | 4.8 | 0.00 | 0.41 | 0.00 | 89 | 1015.2 |
| 20260904153955 | 28 | 14 | 1.6 | 4.8 | 0.00 | 0.41 | 0.00 | 89 | 1015.6 |
| 20260904153420 | 28 | 208 | 0.0 | 1.6 | 0.00 | 0.41 | 0.00 | 90 | 1015.6 |
| 20260904152918 | 28 | 208 | 0.0 | 1.6 | 0.00 | 0.41 | 0.00 | 90 | 1015.2 |
| 20260904152415 | 28 | 30 | 1.6 | 3.2 | 0.00 | 0.41 | 0.00 | 91 | 1015.2 |
| 20260904151853 | 28 | 53 | 1.6 | 3.2 | 0.00 | 0.41 | 0.00 | 91 | 1015.2 |
| 20260904151318 | 28 | 56 | 0.0 | 3.2 | 0.00 | 0.41 | 0.00 | 91 | 1014.9 |
| 20260904150711 | 28 | 34 | 0.0 | 3.2 | 0.00 | 0.41 | 0.00 | 91 | 1014.6 |
| 20260904150149 | 28 | 33 | 0.0 | 4.8 | 0.00 | 0.41 | 0.00 | 91 | 1014.9 |
| 20260904145646 | 27 | 33 | 1.6 | 8.0 | 0.00 | 0.41 | 0.00 | 91 | 1014.9 |
| 20260904145143 | 27 | 33 | 1.6 | 8.0 | 0.00 | 0.41 | 0.00 | 91 | 1014.9 |
| 20260904144640 | 27 | 17 | 3.2 | 8.0 | 0.00 | 0.41 | 0.00 | 92 | 1014.9 |
| 20260904144137 | 27 | 54 | 3.2 | 8.0 | 0.00 | 0.41 | 0.00 | 92 | 1014.9 |
| 20260904143615 | 27 | 86 | 1.6 | 8.0 | 0.00 | 0.41 | 0.00 | 92 | 1014.9 |
| 20260904142938 | 27 | 66 | 3.2 | 8.0 | 0.00 | 0.41 | 0.00 | 93 | 1014.9 |
| 20260904142432 | 27 | 54 | 1.6 | 8.0 | 0.00 | 0.41 | 0.00 | 94 | 1014.6 |
| 20260904141859 | 27 | 17 | 0.0 | 1.6 | 0.00 | 0.41 | 0.00 | 94 | 1014.6 |
| 20260904141216 | 27 | 17 | 0.0 | 1.6 | 0.00 | 0.41 | 0.00 | 94 | 1014.6 |
| 20260904140712 | 27 | 17 | 0.0 | 1.6 | 0.00 | 0.41 | 0.00 | 94 | 1014.6 |
| 20260904140209 | 26 | 17 | 1.6 | 1.6 | 0.00 | 0.41 | 0.00 | 94 | 1014.6 |
| 20260904135647 | 26 | 17 | 0.0 | 0.0 | 0.00 | 0.41 | 0.00 | 94 | 1014.6 |
| 20260904135144 | 26 | 17 | 0.0 | 0.0 | 0.00 | 0.41 | 0.00 | 94 | 1014.6 |
| 20260904134642 | 26 | 17 | 0.0 | 0.0 | 0.00 | 0.41 | 0.00 | 94 | 1014.6 |
| 20260904134138 | 26 | 17 | 0.0 | 0.0 | 0.00 | 0.41 | 0.00 | 94 | 1014.2 |
| 20260904133532 | 26 | 17 | 0.0 | 0.0 | 0.00 | 0.41 | 0.00 | 94 | 1014.2 |
| 20260904133029 | 26 | 17 | 0.0 | 0.0 | 0.00 | 0.41 | 0.00 | 94 | 1014.6 |
| 20260904132526 | 26 | 17 | 0.0 | 0.0 | 0.00 | 0.41 | 0.00 | 94 | 1014.2 |
| 20260904132024 | 26 | 17 | 0.0 | 0.0 | 0.00 | 0.41 | 0.00 | 94 | 1014.2 |
| 20260904131501 | 26 | 17 | 0.0 | 0.0 | 0.00 | 0.41 | 0.00 | 94 | 1014.2 |
| 20260904130959 | 26 | 17 | 0.0 | 0.0 | 0.00 | 0.41 | 0.00 | 94 | 1014.2 |
| 20260904130456 | 26 | 17 | 0.0 | 0.0 | 0.00 | 0.41 | 0.00 | 95 | 1014.2 |
| 20260904125916 | 26 | 17 | 0.0 | 0.0 | 0.00 | 0.41 | 0.00 | 95 | 1014.2 |
| 20260904125413 | 26 | 12 | 0.0 | 0.0 | 0.00 | 0.41 | 0.00 | 95 | 1014.2 |
| 20260904124910 | 26 | 12 | 0.0 | 0.0 | 0.00 | 0.41 | 0.00 | 95 | 1014.2 |
| 20260904124407 | 26 | 12 | 0.0 | 0.0 | 0.00 | 0.41 | 0.00 | 95 | 1013.9 |
| 20260904123903 | 26 | 12 | 0.0 | 0.0 | 0.00 | 0.41 | 0.00 | 95 | 1013.9 |
| 20260904123400 | 26 | 12 | 0.0 | 0.0 | 0.00 | 0.41 | 0.00 | 95 | 1013.9 |
| 20260904122752 | 26 | 12 | 0.0 | 0.0 | 0.00 | 0.41 | 0.00 | 95 | 1013.5 |
| 20260904122249 | 26 | 12 | 0.0 | 0.0 | 0.00 | 0.41 | 0.00 | 95 | 1013.5 |
| 20260904121745 | 26 | 12 | 0.0 | 0.0 | 0.00 | 0.41 | 0.00 | 95 | 1013.5 |
| 20260904121208 | 26 | 12 | 0.0 | 0.0 | 0.00 | 0.41 | 0.00 | 95 | 1013.5 |
| 20260904120705 | 26 | 12 | 0.0 | 0.0 | 0.00 | 0.41 | 0.00 | 95 | 1013.5 |
| 20260904120140 | 26 | 12 | 0.0 | 0.0 | 0.00 | 0.41 | 0.00 | 94 | 1013.5 |
| 20260904115615 | 26 | 12 | 0.0 | 0.0 | 0.00 | 0.41 | 0.00 | 95 | 1013.2 |
| 20260904115111 | 26 | 12 | 0.0 | 0.0 | 0.00 | 0.41 | 0.00 | 95 | 1013.5 |
| 20260904114537 | 26 | 12 | 0.0 | 0.0 | 0.00 | 0.41 | 0.00 | 95 | 1013.5 |
| 20260904114034 | 26 | 12 | 0.0 | 0.0 | 0.00 | 0.41 | 0.00 | 95 | 1013.5 |
| 20260904113531 | 26 | 12 | 0.0 | 0.0 | 0.00 | 0.41 | 0.00 | 94 | 1013.2 |
| 20260904113028 | 26 | 12 | 0.0 | 0.0 | 0.00 | 0.41 | 0.00 | 95 | 1013.5 |
| 20260904112524 | 26 | 12 | 0.0 | 0.0 | 0.00 | 0.41 | 0.00 | 94 | 1013.5 |
| 20260904112022 | 26 | 12 | 0.0 | 0.0 | 0.00 | 0.41 | 0.00 | 94 | 1013.2 |
| 20260904111519 | 26 | 12 | 0.0 | 0.0 | 0.00 | 0.41 | 0.00 | 95 | 1013.5 |
| 20260904110944 | 26 | 12 | 0.0 | 0.0 | 0.00 | 0.41 | 0.00 | 94 | 1013.5 |
| 20260904110441 | 26 | 12 | 0.0 | 0.0 | 0.00 | 0.41 | 0.00 | 94 | 1013.5 |
| 20260904105900 | 26 | 12 | 0.0 | 0.0 | 0.00 | 0.41 | 0.00 | 94 | 1013.5 |
| 20260904105358 | 26 | 12 | 0.0 | 0.0 | 0.00 | 0.41 | 0.00 | 94 | 1013.5 |
| 20260904104855 | 26 | 12 | 0.0 | 0.0 | 0.00 | 0.41 | 0.00 | 94 | 1013.5 |
| 20260904104351 | 26 | 12 | 0.0 | 0.0 | 0.00 | 0.41 | 0.00 | 94 | 1013.5 |
| 20260904103817 | 26 | 12 | 0.0 | 0.0 | 0.00 | 0.41 | 0.00 | 94 | 1013.5 |
| 20260904103313 | 26 | 12 | 0.0 | 0.0 | 0.00 | 0.41 | 0.00 | 94 | 1013.2 |
| 20260904102810 | 26 | 12 | 0.0 | 0.0 | 0.00 | 0.41 | 0.00 | 94 | 1013.2 |
| 20260904102307 | 26 | 12 | 0.0 | 0.0 | 0.00 | 0.41 | 0.00 | 94 | 1013.2 |
| 20260904101732 | 26 | 12 | 0.0 | 0.0 | 0.00 | 0.41 | 0.00 | 94 | 1013.2 |
| 20260904101229 | 26 | 12 | 0.0 | 0.0 | 0.00 | 0.41 | 0.00 | 94 | 1013.2 |
| 20260904100726 | 26 | 12 | 0.0 | 0.0 | 0.00 | 0.41 | 0.00 | 94 | 1013.2 |
| 20260904100121 | 26 | 12 | 0.0 | 0.0 | 0.00 | 0.41 | 0.00 | 94 | 1012.9 |
| 20260904095616 | 26 | 12 | 0.0 | 0.0 | 0.00 | 0.41 | 0.00 | 94 | 1012.9 |
| 20260904095037 | 26 | 12 | 0.0 | 0.0 | 0.00 | 0.41 | 0.00 | 94 | 1012.9 |
| 20260904094534 | 26 | 12 | 0.0 | 0.0 | 0.00 | 0.41 | 0.00 | 94 | 1012.9 |
| 20260904094000 | 26 | 13 | 0.0 | 0.0 | 0.00 | 0.41 | 0.00 | 94 | 1012.9 |
| 20260904093426 | 26 | 13 | 0.0 | 0.0 | 0.00 | 0.41 | 0.00 | 94 | 1012.9 |
| 20260904092904 | 26 | 12 | 0.0 | 0.0 | 0.00 | 0.41 | 0.00 | 94 | 1012.9 |
| 20260904092401 | 26 | 12 | 0.0 | 0.0 | 0.00 | 0.41 | 0.00 | 94 | 1012.9 |
| 20260904091857 | 26 | 12 | 0.0 | 0.0 | 0.00 | 0.41 | 0.00 | 94 | 1012.9 |
| 20260904091323 | 26 | 12 | 0.0 | 0.0 | 0.00 | 0.41 | 0.00 | 94 | 1012.9 |
| 20260904090658 | 26 | 12 | 0.0 | 0.0 | 0.00 | 0.41 | 0.00 | 94 | 1012.9 |
| 20260904090155 | 26 | 12 | 0.0 | 0.0 | 0.00 | 0.41 | 0.00 | 94 | 1012.9 |
| 20260904085652 | 26 | 12 | 0.0 | 0.0 | 0.00 | 0.41 | 0.00 | 94 | 1012.9 |
| 20260904085149 | 26 | 12 | 0.0 | 0.0 | 0.00 | 0.41 | 0.00 | 94 | 1012.9 |
| 20260904084647 | 26 | 12 | 0.0 | 0.0 | 0.00 | 0.41 | 0.00 | 94 | 1012.5 |
| 20260904084143 | 26 | 12 | 0.0 | 0.0 | 0.00 | 0.41 | 0.00 | 94 | 1012.5 |
| 20260904083640 | 26 | 12 | 0.0 | 0.0 | 0.00 | 0.41 | 0.00 | 94 | 1012.9 |
| 20260904083106 | 26 | 12 | 0.0 | 0.0 | 0.00 | 0.41 | 0.00 | 94 | 1012.9 |
| 20260904082602 | 26 | 12 | 0.0 | 0.0 | 0.00 | 0.41 | 0.00 | 94 | 1012.9 |
| 20260904082041 | 26 | 12 | 0.0 | 0.0 | 0.00 | 0.41 | 0.00 | 94 | 1012.9 |
| 20260904081538 | 26 | 12 | 0.0 | 0.0 | 0.00 | 0.41 | 0.00 | 94 | 1012.9 |
| 20260904081035 | 26 | 13 | 0.0 | 0.0 | 0.00 | 0.41 | 0.00 | 94 | 1012.9 |
| 20260904080532 | 26 | 12 | 0.0 | 0.0 | 0.00 | 0.41 | 0.00 | 94 | 1012.9 |
| 20260904075936 | 26 | 13 | 0.0 | 0.0 | 0.00 | 0.41 | 0.00 | 94 | 1012.9 |
| 20260904075423 | 26 | 12 | 0.0 | 0.0 | 0.00 | 0.41 | 0.00 | 94 | 1012.9 |
| 20260904074906 | 26 | 12 | 0.0 | 0.0 | 0.00 | 0.41 | 0.00 | 94 | 1012.9 |
| 20260904074403 | 26 | 12 | 0.0 | 0.0 | 0.00 | 0.41 | 0.00 | 94 | 1012.9 |
| 20260904073859 | 26 | 12 | 0.0 | 0.0 | 0.00 | 0.41 | 0.00 | 94 | 1012.9 |
| 20260904073325 | 26 | 12 | 0.0 | 0.0 | 0.00 | 0.41 | 0.00 | 94 | 1012.9 |
| 20260904072804 | 26 | 12 | 0.0 | 0.0 | 0.00 | 0.41 | 0.00 | 94 | 1012.9 |
| 20260904072300 | 26 | 13 | 0.0 | 0.0 | 0.00 | 0.41 | 0.00 | 94 | 1012.9 |
| 20260904071757 | 26 | 12 | 0.0 | 0.0 | 0.00 | 0.41 | 0.00 | 94 | 1012.9 |
| 20260904071254 | 26 | 12 | 0.0 | 0.0 | 0.00 | 0.41 | 0.00 | 94 | 1012.9 |
| 20260904070719 | 26 | 12 | 0.0 | 0.0 | 0.00 | 0.41 | 0.00 | 94 | 1013.2 |
| 20260904070217 | 26 | 12 | 0.0 | 0.0 | 0.00 | 0.41 | 0.00 | 94 | 1013.2 |
| 20260904065655 | 26 | 12 | 0.0 | 0.0 | 0.00 | 0.41 | 0.00 | 94 | 1012.9 |
| 20260904065152 | 26 | 12 | 0.0 | 0.0 | 0.00 | 0.41 | 0.00 | 94 | 1013.2 |
| 20260904064649 | 26 | 12 | 0.0 | 0.0 | 0.00 | 0.41 | 0.00 | 94 | 1013.2 |
| 20260904064115 | 26 | 12 | 0.0 | 0.0 | 0.00 | 0.41 | 0.00 | 94 | 1013.2 |
| 20260904063612 | 26 | 12 | 0.0 | 0.0 | 0.00 | 0.41 | 0.00 | 94 | 1013.2 |
| 20260904063037 | 26 | 13 | 0.0 | 0.0 | 0.00 | 0.41 | 0.00 | 94 | 1012.9 |
| 20260904062533 | 26 | 12 | 0.0 | 0.0 | 0.00 | 0.41 | 0.00 | 94 | 1012.9 |
| 20260904062030 | 26 | 12 | 0.0 | 0.0 | 0.00 | 0.41 | 0.00 | 94 | 1013.2 |
| 20260904061456 | 26 | 13 | 0.0 | 0.0 | 0.00 | 0.41 | 0.00 | 94 | 1013.2 |
| 20260904060953 | 27 | 12 | 0.0 | 0.0 | 0.00 | 0.41 | 0.00 | 94 | 1013.2 |
| 20260904060449 | 27 | 12 | 0.0 | 0.0 | 0.00 | 0.41 | 0.00 | 94 | 1013.2 |
| 20260904055946 | 27 | 12 | 0.0 | 0.0 | 0.00 | 0.41 | 0.00 | 94 | 1013.2 |
| 20260904055442 | 27 | 13 | 0.0 | 0.0 | 0.00 | 0.41 | 0.00 | 94 | 1013.2 |
| 20260904054920 | 27 | 12 | 0.0 | 0.0 | 0.00 | 0.41 | 0.00 | 94 | 1013.2 |
| 20260904054417 | 27 | 12 | 0.0 | 0.0 | 0.00 | 0.41 | 0.00 | 94 | 1013.2 |
| 20260904053842 | 27 | 12 | 0.0 | 0.0 | 0.00 | 0.41 | 0.00 | 94 | 1013.2 |
| 20260904053339 | 27 | 12 | 0.0 | 0.0 | 0.00 | 0.41 | 0.00 | 94 | 1013.2 |
| 20260904052837 | 27 | 13 | 0.0 | 0.0 | 0.00 | 0.41 | 0.00 | 94 | 1013.2 |
| 20260904052334 | 27 | 12 | 0.0 | 0.0 | 0.00 | 0.41 | 0.00 | 94 | 1013.2 |
| 20260904051831 | 27 | 13 | 0.0 | 0.0 | 0.00 | 0.41 | 0.41 | 94 | 1013.2 |
| 20260904051328 | 27 | 13 | 0.0 | 0.0 | 0.00 | 0.41 | 0.41 | 94 | 1013.2 |
| 20260904050825 | 27 | 12 | 0.0 | 0.0 | 0.00 | 0.41 | 0.41 | 94 | 1013.2 |
| 20260904050322 | 27 | 12 | 0.0 | 0.0 | 0.00 | 0.41 | 0.41 | 94 | 1013.2 |
| 20260904045819 | 27 | 13 | 0.0 | 0.0 | 0.00 | 0.41 | 0.41 | 94 | 1013.2 |
| 20260904045245 | 27 | 12 | 0.0 | 0.0 | 0.00 | 0.41 | 0.41 | 94 | 1013.2 |
| 20260904044741 | 27 | 12 | 0.0 | 0.0 | 0.00 | 0.41 | 0.41 | 94 | 1013.2 |
| 20260904044238 | 27 | 12 | 0.0 | 0.0 | 0.00 | 0.41 | 0.41 | 94 | 1013.2 |
| 20260904043735 | 27 | 12 | 0.0 | 0.0 | 0.00 | 0.41 | 0.41 | 94 | 1013.2 |
| 20260904043231 | 27 | 13 | 0.0 | 0.0 | 0.00 | 0.41 | 0.41 | 94 | 1013.2 |
| 20260904042727 | 27 | 12 | 0.0 | 0.0 | 0.00 | 0.41 | 0.41 | 94 | 1013.2 |
| 20260904042224 | 27 | 12 | 0.0 | 0.0 | 0.00 | 0.41 | 0.41 | 94 | 1013.2 |
| 20260904041717 | 27 | 13 | 0.0 | 0.0 | 0.00 | 0.41 | 0.41 | 94 | 1013.2 |
| 20260904041210 | 27 | 12 | 0.0 | 0.0 | 0.00 | 0.41 | 0.41 | 94 | 1013.2 |
| 20260904040657 | 27 | 12 | 0.0 | 0.0 | 0.00 | 0.41 | 0.41 | 94 | 1013.2 |
| 20260904040143 | 27 | 12 | 0.0 | 0.0 | 0.00 | 0.41 | 0.41 | 94 | 1013.2 |
| 20260904035540 | 27 | 12 | 0.0 | 0.0 | 0.00 | 0.41 | 0.41 | 94 | 1013.2 |
| 20260904035037 | 27 | 12 | 0.0 | 0.0 | 0.00 | 0.41 | 0.41 | 94 | 1013.2 |
| 20260904034533 | 27 | 12 | 0.0 | 0.0 | 0.00 | 0.41 | 0.41 | 94 | 1013.2 |
| 20260904033928 | 27 | 12 | 0.0 | 0.0 | 0.00 | 0.41 | 0.41 | 94 | 1013.5 |
| 20260904033425 | 27 | 12 | 0.0 | 0.0 | 0.00 | 0.41 | 0.41 | 94 | 1013.5 |
| 20260904032922 | 27 | 12 | 0.0 | 0.0 | 0.00 | 0.41 | 0.41 | 94 | 1013.2 |
| 20260904032419 | 27 | 12 | 0.0 | 0.0 | 0.00 | 0.41 | 0.41 | 94 | 1013.2 |
| 20260904031917 | 27 | 12 | 0.0 | 0.0 | 0.00 | 0.41 | 0.41 | 94 | 1013.5 |
| 20260904031413 | 27 | 12 | 0.0 | 0.0 | 0.00 | 0.41 | 0.41 | 94 | 1013.5 |
| 20260904030910 | 27 | 12 | 0.0 | 0.0 | 0.00 | 0.41 | 0.41 | 94 | 1013.5 |
| 20260904030407 | 27 | 12 | 0.0 | 0.0 | 0.00 | 0.41 | 0.41 | 93 | 1013.5 |
| 20260904025904 | 27 | 12 | 0.0 | 0.0 | 0.00 | 0.41 | 0.41 | 93 | 1013.5 |
| 20260904025401 | 27 | 13 | 0.0 | 0.0 | 0.00 | 0.41 | 0.41 | 93 | 1013.5 |
| 20260904024858 | 27 | 12 | 0.0 | 0.0 | 0.00 | 0.41 | 0.41 | 93 | 1013.5 |
| 20260904024355 | 27 | 12 | 0.0 | 0.0 | 0.00 | 0.41 | 0.41 | 93 | 1013.5 |
| 20260904023821 | 27 | 12 | 0.0 | 0.0 | 0.00 | 0.41 | 0.41 | 93 | 1013.2 |
| 20260904023318 | 27 | 12 | 0.0 | 0.0 | 0.00 | 0.41 | 0.41 | 93 | 1013.2 |
| 20260904022815 | 27 | 12 | 0.0 | 0.0 | 0.00 | 0.41 | 0.41 | 93 | 1013.2 |
| 20260904022312 | 27 | 12 | 0.0 | 0.0 | 0.00 | 0.41 | 0.41 | 93 | 1013.2 |
| 20260904021809 | 27 | 12 | 0.0 | 0.0 | 0.00 | 0.41 | 0.41 | 93 | 1012.9 |
| 20260904021235 | 27 | 13 | 0.0 | 0.0 | 0.00 | 0.41 | 0.41 | 93 | 1012.9 |
| 20260904020718 | 27 | 5 | 0.0 | 0.0 | 0.00 | 0.41 | 0.41 | 93 | 1012.9 |
| 20260904020215 | 27 | 5 | 0.0 | 0.0 | 0.00 | 0.41 | 0.41 | 93 | 1012.9 |
| 20260904015654 | 27 | 5 | 0.0 | 0.0 | 0.00 | 0.41 | 0.41 | 93 | 1012.9 |
| 20260904015119 | 27 | 5 | 0.0 | 0.0 | 0.00 | 0.41 | 0.41 | 93 | 1012.9 |
| 20260904014616 | 27 | 5 | 0.0 | 0.0 | 0.00 | 0.41 | 0.41 | 93 | 1012.9 |
| 20260904014113 | 27 | 5 | 0.0 | 0.0 | 0.00 | 0.41 | 0.41 | 93 | 1012.5 |
| 20260904013610 | 27 | 5 | 0.0 | 0.0 | 0.00 | 0.41 | 0.41 | 93 | 1012.5 |
| 20260904013107 | 27 | 5 | 0.0 | 0.0 | 0.00 | 0.41 | 0.41 | 93 | 1012.5 |
| 20260904012604 | 27 | 5 | 0.0 | 0.0 | 0.00 | 0.41 | 0.41 | 93 | 1012.5 |
| 20260904012101 | 27 | 5 | 0.0 | 0.0 | 0.00 | 0.41 | 0.41 | 93 | 1012.5 |
| 20260904011558 | 27 | 5 | 0.0 | 0.0 | 0.00 | 0.41 | 0.41 | 93 | 1012.5 |
| 20260904011056 | 27 | 5 | 0.0 | 0.0 | 0.00 | 0.41 | 0.41 | 93 | 1012.5 |
| 20260904010534 | 27 | 5 | 0.0 | 1.6 | 0.00 | 0.41 | 0.41 | 93 | 1012.5 |
| 20260904010031 | 27 | 5 | 0.0 | 1.6 | 0.00 | 0.41 | 0.41 | 93 | 1012.5 |
| 20260904005528 | 27 | 5 | 0.0 | 3.2 | 0.00 | 0.41 | 0.41 | 93 | 1012.5 |
| 20260904004952 | 27 | 5 | 0.0 | 3.2 | 0.00 | 0.41 | 0.41 | 93 | 1012.5 |
| 20260904004449 | 27 | 5 | 0.0 | 3.2 | 0.00 | 0.41 | 0.41 | 93 | 1012.2 |
| 20260904003946 | 27 | 5 | 1.6 | 3.2 | 0.00 | 0.41 | 0.41 | 93 | 1012.5 |
| 20260904003444 | 27 | 5 | 0.0 | 3.2 | 0.00 | 0.41 | 0.41 | 93 | 1012.5 |
| 20260904002914 | 27 | 5 | 0.0 | 3.2 | 0.00 | 0.41 | 0.41 | 93 | 1012.5 |
| 20260904002411 | 27 | 5 | 0.0 | 3.2 | 0.00 | 0.41 | 0.41 | 93 | 1012.5 |
| 20260904001908 | 27 | 5 | 0.0 | 3.2 | 0.00 | 0.41 | 0.41 | 92 | 1012.5 |
| 20260904001405 | 27 | 5 | 0.0 | 3.2 | 0.00 | 0.41 | 0.41 | 93 | 1012.5 |
| 20260904000902 | 27 | 5 | 1.6 | 3.2 | 0.00 | 0.41 | 0.41 | 93 | 1012.5 |
| 20260904000359 | 27 | 5 | 0.0 | 3.2 | 0.00 | 0.41 | 0.41 | 93 | 1012.5 |
| 20260903235856 | 27 | 5 | 1.6 | 4.8 | 0.00 | 0.41 | 0.41 | 92 | 1012.5 |
| 20260903235351 | 27 | 25 | 0.0 | 4.8 | 0.00 | 0.41 | 0.41 | 92 | 1012.5 |
| 20260903234847 | 27 | 25 | 1.6 | 4.8 | 0.00 | 0.41 | 0.41 | 92 | 1012.5 |
| 20260903234344 | 28 | 323 | 1.6 | 4.8 | 0.00 | 0.41 | 0.41 | 93 | 1012.5 |
| 20260903233841 | 28 | 338 | 1.6 | 4.8 | 0.00 | 0.41 | 0.41 | 92 | 1012.5 |
| 20260903233307 | 28 | 338 | 1.6 | 4.8 | 0.00 | 0.41 | 0.41 | 92 | 1012.5 |
| 20260903232803 | 27 | 267 | 1.6 | 4.8 | 0.00 | 0.41 | 0.41 | 92 | 1012.5 |
| 20260903232228 | 27 | 97 | 1.6 | 4.8 | 0.00 | 0.41 | 0.41 | 92 | 1012.5 |
| 20260903231725 | 28 | 8 | 1.6 | 3.2 | 0.00 | 0.41 | 0.41 | 92 | 1012.2 |
| 20260903231151 | 28 | 360 | 0.0 | 0.0 | 0.00 | 0.41 | 0.41 | 93 | 1012.5 |
| 20260903230648 | 28 | 42 | 0.0 | 0.0 | 0.00 | 0.41 | 0.41 | 93 | 1012.5 |
| 20260903230124 | 28 | 300 | 0.0 | 0.0 | 0.00 | 0.41 | 0.41 | 92 | 1012.5 |
| 20260903225547 | 28 | 300 | 0.0 | 0.0 | 0.00 | 0.41 | 0.41 | 92 | 1012.5 |
| 20260903225044 | 28 | 355 | 0.0 | 0.0 | 0.00 | 0.41 | 0.41 | 92 | 1012.5 |
| 20260903224541 | 28 | 355 | 0.0 | 0.0 | 0.00 | 0.41 | 0.41 | 92 | 1012.5 |
| 20260903224038 | 28 | 109 | 0.0 | 0.0 | 0.00 | 0.41 | 0.41 | 92 | 1012.5 |
| 20260903223535 | 28 | 109 | 0.0 | 3.2 | 0.00 | 0.41 | 0.41 | 92 | 1012.9 |
| 20260903223032 | 28 | 355 | 0.0 | 4.8 | 0.00 | 0.41 | 0.41 | 92 | 1012.9 |
| 20260903222441 | 28 | 360 | 0.0 | 6.4 | 0.00 | 0.41 | 0.41 | 92 | 1012.9 |
| 20260903221938 | 28 | 112 | 3.2 | 8.0 | 0.00 | 0.41 | 0.41 | 92 | 1012.9 |
| 20260903221435 | 28 | 62 | 1.6 | 8.0 | 0.00 | 0.41 | 0.41 | 92 | 1012.9 |
| 20260903220933 | 28 | 77 | 3.2 | 8.0 | 0.00 | 0.41 | 0.41 | 92 | 1012.9 |
| 20260903220411 | 28 | 75 | 3.2 | 8.0 | 0.00 | 0.41 | 0.41 | 92 | 1012.9 |
| 20260903215908 | 28 | 61 | 1.6 | 6.4 | 0.00 | 0.41 | 0.41 | 92 | 1012.9 |
| 20260903215404 | 28 | 70 | 3.2 | 6.4 | 0.00 | 0.41 | 0.41 | 92 | 1012.9 |
| 20260903214901 | 28 | 79 | 3.2 | 6.4 | 0.00 | 0.41 | 0.41 | 92 | 1013.2 |
| 20260903214326 | 28 | 88 | 1.6 | 3.2 | 0.00 | 0.41 | 0.41 | 93 | 1013.2 |
| 20260903213823 | 28 | 88 | 1.6 | 3.2 | 0.00 | 0.41 | 0.41 | 93 | 1013.5 |
| 20260903213249 | 28 | 50 | 1.6 | 4.8 | 0.00 | 0.41 | 0.41 | 92 | 1013.5 |
| 20260903212209 | 28 | 92 | 0.0 | 4.8 | 0.00 | 0.41 | 0.41 | 92 | 1013.5 |
| 20260903211706 | 28 | 66 | 1.6 | 4.8 | 0.00 | 0.41 | 0.41 | 92 | 1013.5 |
| 20260903211159 | 28 | 74 | 3.2 | 4.8 | 0.03 | 0.41 | 0.41 | 92 | 1013.5 |